Time;durP1;ratioP1;P1;durP2;ratioP2;P2;SDS_P1;SDS_P2;PMS_P1;PMS_P2;Temp;Humidity;BMP_temperature;BMP_pressure;BME280_temperature;BME280_humidity;BME280_pressure;Samples;Min_cycle;Max_cycle;Signal;HPM_P1;HPM_P2
2021/10/19 00:02:20;;;;;;;34.70;27.90;;;;;;;10.55;69.78;101363.39;116949;1192;21894;-81
2021/10/19 00:05:01;;;;;;;30.40;27.10;;;;;;;10.49;69.71;101360.84;116875;1192;22531;-80
2021/10/19 00:07:42;;;;;;;33.30;27.70;;;;;;;10.44;69.92;101359.00;116799;1193;21900;-80
2021/10/19 00:10:16;;;;;;;32.60;26.50;;;;;;;10.43;70.26;101362.27;116792;1192;25548;-80
2021/10/19 00:13:04;;;;;;;32.20;27.20;;;;;;;10.43;70.37;101357.71;116809;1192;23696;-80
2021/10/19 00:15:43;;;;;;;35.30;27.90;;;;;;;10.39;70.29;101358.20;116509;1196;22013;-80
2021/10/19 00:18:23;;;;;;;32.10;27.10;;;;;;;10.35;70.34;101355.52;116205;1196;21910;-81
2021/10/19 00:20:57;;;;;;;32.40;28.30;;;;;;;10.34;70.59;101355.61;116323;1197;21908;-79
2021/10/19 00:23:30;;;;;;;37.60;28.70;;;;;;;10.33;70.67;101351.52;116275;1199;24061;-79
2021/10/19 00:26:02;;;;;;;33.80;27.80;;;;;;;10.35;70.90;101347.64;116045;1199;21887;-79
2021/10/19 00:28:39;;;;;;;37.90;26.80;;;;;;;10.39;71.05;101346.77;115861;1200;21980;-79
2021/10/19 00:31:09;;;;;;;35.60;28.10;;;;;;;10.41;70.94;101346.05;115845;1198;21912;-79
2021/10/19 00:33:39;;;;;;;37.10;29.00;;;;;;;10.42;70.86;101344.70;116477;1194;23565;-79
2021/10/19 00:36:09;;;;;;;37.00;30.20;;;;;;;10.43;70.83;101339.89;116485;1194;23502;-79
2021/10/19 00:38:38;;;;;;;33.50;28.70;;;;;;;10.41;70.64;101339.56;116544;1196;21901;-79
2021/10/19 00:41:17;;;;;;;39.70;31.10;;;;;;;10.39;70.63;101341.65;116574;1196;21897;-80
2021/10/19 00:43:53;;;;;;;33.20;27.40;;;;;;;10.38;70.70;101337.02;116747;1193;22807;-80
2021/10/19 00:46:24;;;;;;;33.40;29.10;;;;;;;10.39;70.78;101336.67;116703;1190;23535;-80
2021/10/19 00:48:53;;;;;;;35.90;28.90;;;;;;;10.42;70.74;101333.34;116472;1195;21907;-79
2021/10/19 00:51:24;;;;;;;34.20;30.10;;;;;;;10.41;70.59;101332.84;116489;1195;21908;-79
2021/10/19 00:53:55;;;;;;;32.60;28.90;;;;;;;10.41;70.65;101329.69;116467;1195;24193;-79
2021/10/19 00:56:25;;;;;;;34.90;28.30;;;;;;;10.41;70.93;101326.30;116510;1193;23456;-79
2021/10/19 00:58:55;;;;;;;34.30;28.10;;;;;;;10.42;70.77;101328.88;116507;1194;21893;-80
2021/10/19 01:01:27;;;;;;;36.00;27.10;;;;;;;10.42;70.65;101331.03;116254;1196;22638;-79
2021/10/19 01:04:00;;;;;;;35.40;26.80;;;;;;;10.39;70.60;101332.00;116164;1198;23494;-79
2021/10/19 01:06:33;;;;;;;;;;;;;;;10.34;70.49;101329.05;116279;1195;21879;-79
2021/10/19 01:09:03;;;;;;;30.40;24.70;;;;;;;10.25;70.65;101328.35;116297;1197;23461;-78
2021/10/19 01:11:37;;;;;;;29.40;25.00;;;;;;;10.24;70.93;101325.95;116187;1197;21897;-78
2021/10/19 01:14:17;;;;;;;30.00;25.60;;;;;;;10.25;70.99;101322.48;116011;1200;21899;-78
2021/10/19 01:16:47;;;;;;;34.50;27.20;;;;;;;10.22;70.67;101317.69;115980;1200;23495;-78
2021/10/19 01:19:26;;;;;;;33.40;27.60;;;;;;;10.17;70.66;101316.73;115974;1200;23601;-79
2021/10/19 01:22:03;;;;;;;31.20;26.10;;;;;;;10.15;70.85;101318.61;115982;1186;21890;-78
2021/10/19 01:24:35;;;;;;;31.50;26.30;;;;;;;10.10;70.70;101314.86;116224;1198;21914;-78
2021/10/19 01:27:07;;;;;;;31.70;26.80;;;;;;;10.03;70.63;101314.26;116033;1198;21911;-79
2021/10/19 01:29:37;;;;;;;32.90;26.80;;;;;;;9.98;70.88;101310.21;116136;1198;21907;-79
2021/10/19 01:32:08;;;;;;;31.80;26.00;;;;;;;9.93;70.98;101309.52;116190;1195;23608;-79
2021/10/19 01:34:38;;;;;;;30.00;26.30;;;;;;;9.89;71.03;101309.55;116248;1195;22428;-79
2021/10/19 01:37:07;;;;;;;29.50;24.90;;;;;;;9.87;71.24;101309.45;116285;1197;23567;-78
2021/10/19 01:39:36;;;;;;;29.40;25.30;;;;;;;9.84;71.28;101307.36;116296;1193;21903;-78
2021/10/19 01:42:06;;;;;;;30.60;26.20;;;;;;;9.82;71.41;101310.39;116111;1198;21886;-78
2021/10/19 01:44:38;;;;;;;28.00;25.00;;;;;;;9.80;71.40;101314.31;116077;1197;22950;-77
2021/10/19 01:47:12;;;;;;;27.80;23.80;;;;;;;9.74;71.43;101312.16;116151;1198;22082;-79
2021/10/19 01:49:41;;;;;;;25.50;22.90;;;;;;;9.71;71.62;101312.31;116148;1197;22932;-78
2021/10/19 01:52:11;;;;;;;25.30;22.40;;;;;;;9.69;71.77;101305.98;116337;1196;21903;-78
2021/10/19 01:54:40;;;;;;;26.90;24.10;;;;;;;9.70;72.02;101297.05;116153;1196;21956;-78
2021/10/19 01:57:10;;;;;;;25.10;22.40;;;;;;;9.74;72.14;101292.64;116075;1196;21904;-78
2021/10/19 01:59:42;;;;;;;42.60;25.20;;;;;;;9.77;72.08;101293.48;116144;1196;23546;-78
2021/10/19 02:02:11;;;;;;;26.30;23.30;;;;;;;9.79;72.23;101292.39;116393;1194;22024;-78
2021/10/19 02:04:41;;;;;;;26.80;23.90;;;;;;;9.82;72.23;101291.73;116563;1194;21998;-78
2021/10/19 02:07:11;;;;;;;25.30;22.70;;;;;;;9.84;72.11;101290.29;116627;1192;22133;-79
2021/10/19 02:09:42;;;;;;;;;;;;;;;9.85;71.84;101289.20;116587;1193;22949;-79
2021/10/19 02:12:12;;;;;;;26.90;22.80;;;;;;;9.76;71.68;101285.59;116603;1193;21895;-79
2021/10/19 02:14:43;;;;;;;28.70;23.50;;;;;;;9.69;71.56;101277.29;116590;1181;22881;-80
2021/10/19 02:17:12;;;;;;;27.90;24.00;;;;;;;9.62;71.40;101268.40;116605;1190;22913;-78
2021/10/19 02:19:42;;;;;;;29.20;24.00;;;;;;;9.54;71.43;101262.06;116601;1192;21874;-78
2021/10/19 02:22:14;;;;;;;29.80;24.50;;;;;;;9.46;71.54;101262.86;116853;1192;23383;-78
2021/10/19 02:24:49;;;;;;;28.30;24.80;;;;;;;9.38;71.64;101269.70;116349;1196;22364;-79
2021/10/19 02:27:22;;;;;;;28.50;25.30;;;;;;;9.32;71.82;101266.23;116167;1197;24203;-79
2021/10/19 02:29:54;;;;;;;31.60;26.50;;;;;;;9.25;71.94;101264.02;116358;1197;22669;-80
2021/10/19 02:32:27;;;;;;;29.70;26.40;;;;;;;9.19;72.29;101256.98;116444;1197;21915;-79
2021/10/19 02:34:57;;;;;;;30.20;25.00;;;;;;;9.17;72.49;101258.89;116485;1194;22676;-81
2021/10/19 02:37:29;;;;;;;31.80;25.60;;;;;;;9.19;72.94;101266.77;116512;1195;21895;-79
2021/10/19 02:39:58;;;;;;;26.60;23.80;;;;;;;9.21;73.00;101267.70;116642;1194;21915;-79
2021/10/19 02:42:28;;;;;;;31.90;28.50;;;;;;;9.22;72.94;101269.05;116201;1191;21897;-80
2021/10/19 02:44:59;;;;;;;34.00;28.30;;;;;;;9.19;72.76;101274.36;116332;1195;22942;-79
2021/10/19 02:47:29;;;;;;;34.30;29.30;;;;;;;9.15;72.79;101280.51;116472;1195;23027;-79
2021/10/19 02:49:58;;;;;;;37.60;33.80;;;;;;;9.13;72.96;101282.45;116236;1196;21945;-79
2021/10/19 02:52:27;;;;;;;33.30;29.90;;;;;;;9.14;73.18;101281.64;116174;1199;22848;-79
2021/10/19 02:54:56;;;;;;;34.80;31.10;;;;;;;9.16;73.33;101276.71;116140;1201;22377;-79
2021/10/19 02:57:25;;;;;;;36.50;32.80;;;;;;;9.17;73.11;101279.33;115866;1201;22714;-79
2021/10/19 02:59:55;;;;;;;35.30;31.70;;;;;;;9.17;73.32;101281.38;116001;1199;21924;-80
2021/10/19 03:02:25;;;;;;;35.10;31.50;;;;;;;9.19;73.41;101284.01;116170;1199;22675;-79
2021/10/19 03:04:54;;;;;;;37.70;33.60;;;;;;;9.20;73.34;101284.34;116057;1199;22695;-79
2021/10/19 03:07:23;;;;;;;35.70;32.00;;;;;;;9.20;73.28;101279.08;115984;1196;21958;-79
2021/10/19 03:09:53;;;;;;;34.70;31.00;;;;;;;9.18;73.11;101284.16;116290;1192;22082;-79
2021/10/19 03:12:22;;;;;;;34.80;31.10;;;;;;;9.14;72.89;101287.09;116614;1189;22946;-79
2021/10/19 03:14:51;;;;;;;38.70;33.60;;;;;;;9.12;73.05;101288.56;116887;1187;22711;-79
2021/10/19 03:17:20;;;;;;;34.90;31.40;;;;;;;9.09;72.98;101296.76;117130;1189;22013;-80
2021/10/19 03:19:50;;;;;;;35.80;32.00;;;;;;;9.06;73.08;101298.77;116919;1189;23901;-80
2021/10/19 03:22:19;;;;;;;34.80;31.30;;;;;;;9.03;73.01;101305.36;116881;1189;21909;-79
2021/10/19 03:24:49;;;;;;;38.80;33.60;;;;;;;8.97;73.02;101301.14;116909;1189;23481;-79
2021/10/19 03:27:18;;;;;;;38.30;32.40;;;;;;;8.91;73.04;101302.45;116838;1190;21904;-79
2021/10/19 03:29:47;;;;;;;36.50;32.50;;;;;;;8.85;73.07;101304.92;116597;1188;22970;-78
2021/10/19 03:32:16;;;;;;;35.00;31.00;;;;;;;8.81;73.17;101302.52;116514;1190;22997;-78
2021/10/19 03:34:46;;;;;;;37.10;32.10;;;;;;;8.78;73.41;101306.84;116252;1193;22854;-79
2021/10/19 03:37:15;;;;;;;40.20;32.40;;;;;;;8.75;73.63;101308.77;116056;1200;21895;-79
2021/10/19 03:39:45;;;;;;;44.80;37.80;;;;;;;8.76;73.87;101305.28;116406;1198;21930;-80
2021/10/19 03:42:14;;;;;;;42.50;38.00;;;;;;;8.79;74.24;101304.64;116121;1199;22924;-79
2021/10/19 03:44:43;;;;;;;45.70;40.70;;;;;;;8.82;74.45;101302.45;116080;1199;21882;-80
2021/10/19 03:47:12;;;;;;;39.70;33.20;;;;;;;8.83;74.34;101305.27;115841;1196;21907;-78
2021/10/19 03:49:42;;;;;;;36.10;32.40;;;;;;;8.85;74.42;101311.96;116027;1198;22049;-79
2021/10/19 03:52:13;;;;;;;40.20;31.70;;;;;;;8.88;74.45;101317.16;116051;1196;21962;-79
2021/10/19 03:54:42;;;;;;;46.90;37.20;;;;;;;8.88;74.24;101317.31;116263;1195;21892;-79
2021/10/19 03:57:11;;;;;;;41.60;36.40;;;;;;;8.83;73.95;101319.52;116432;1195;21916;-80
2021/10/19 03:59:41;;;;;;;39.30;33.00;;;;;;;8.77;73.89;101323.22;116529;1196;22963;-79
2021/10/19 04:02:15;;;;;;;46.40;36.30;;;;;;;8.70;73.92;101321.31;116368;1195;22631;-79
2021/10/19 04:04:51;;;;;;;47.80;39.10;;;;;;;8.62;73.90;101318.33;116453;1192;23507;-79
2021/10/19 04:07:20;;;;;;;44.60;34.30;;;;;;;8.55;74.15;101317.72;116826;1184;22985;-78
2021/10/19 04:09:50;;;;;;;35.30;30.60;;;;;;;8.50;74.15;101316.09;117155;1187;23566;-79
2021/10/19 04:12:19;;;;;;;34.60;30.50;;;;;;;8.44;74.19;101311.25;117022;1187;21888;-78
2021/10/19 04:14:49;;;;;;;36.30;32.20;;;;;;;8.36;74.33;101302.62;116947;1188;23567;-79
2021/10/19 04:17:23;;;;;;;35.00;31.40;;;;;;;8.26;74.40;101294.00;117032;1188;21926;-80
2021/10/19 04:19:58;;;;;;;35.90;32.10;;;;;;;8.16;74.56;101290.27;117190;1188;22020;-79
2021/10/19 04:22:35;;;;;;;35.40;31.70;;;;;;;8.11;74.95;101286.17;117131;1188;21889;-79
2021/10/19 04:25:14;;;;;;;34.70;31.00;;;;;;;8.08;75.19;101285.40;117223;1188;21874;-79
2021/10/19 04:28:01;;;;;;;34.10;30.70;;;;;;;8.05;75.29;101283.64;117348;1188;21892;-79
2021/10/19 04:30:45;;;;;;;36.50;31.70;;;;;;;8.01;75.45;101277.52;117055;1190;21890;-78
2021/10/19 04:33:23;;;;;;;33.40;29.90;;;;;;;7.97;75.43;101275.20;116952;1191;21879;-78
2021/10/19 04:36:04;;;;;;;36.30;32.50;;;;;;;7.92;75.49;101275.50;116949;1189;21885;-81
2021/10/19 04:38:39;;;;;;;36.10;32.10;;;;;;;7.85;75.56;101268.47;116927;1190;22349;-79
2021/10/19 04:41:24;;;;;;;36.10;32.10;;;;;;;7.80;75.70;101267.01;117105;1189;21899;-80
2021/10/19 04:44:16;;;;;;;35.60;31.70;;;;;;;7.75;75.92;101266.50;116991;1190;22678;-80
2021/10/19 04:47:03;;;;;;;39.00;34.40;;;;;;;7.72;76.17;101262.17;116950;1190;23126;-79
2021/10/19 04:49:51;;;;;;;37.60;33.80;;;;;;;7.70;76.26;101265.73;117083;1189;24273;-80
2021/10/19 04:52:40;;;;;;;38.80;34.60;;;;;;;7.70;76.53;101270.13;117225;1187;21885;-78
2021/10/19 04:56:11;;;;;;;;;;;;;;;;;;;;;
2021/10/19 04:59:09;;;;;;;36.70;32.90;;;;;;;7.81;77.00;101274.95;117233;1189;24189;-79
2021/10/19 05:01:59;;;;;;;36.20;32.30;;;;;;;7.88;77.15;101275.98;117267;1189;23677;-80
2021/10/19 05:05:20;;;;;;;38.60;34.60;;;;;;;7.91;76.88;101279.39;116824;1191;22991;-80
2021/10/19 05:08:23;;;;;;;36.00;32.20;;;;;;;7.94;76.92;101283.50;116614;1193;24126;-79
2021/10/19 05:11:31;;;;;;;;;;;;;;;;;;;;;
2021/10/19 05:14:57;;;;;;;38.70;34.60;;;;;;;8.02;76.79;101285.17;116770;1193;23487;-80
2021/10/19 05:17:44;;;;;;;39.10;35.10;;;;;;;8.05;76.69;101286.70;116631;1193;21881;-80
2021/10/19 05:21:03;;;;;;;35.90;32.20;;;;;;;8.05;76.40;101288.80;116524;1194;21899;-80
2021/10/19 05:23:39;;;;;;;35.00;30.90;;;;;;;8.04;76.46;101294.16;116543;1192;21881;-79
2021/10/19 05:26:15;;;;;;;35.90;30.90;;;;;;;8.05;76.47;101296.30;116785;1189;22027;-79
2021/10/19 05:28:51;;;;;;;38.80;33.50;;;;;;;8.11;76.41;101298.05;116919;1188;24791;-80
2021/10/19 05:31:28;;;;;;;43.40;34.10;;;;;;;8.12;76.23;101295.91;117169;1189;21881;-80
2021/10/19 05:34:03;;;;;;;44.30;35.60;;;;;;;8.13;76.20;101291.64;116894;1188;21891;-80
2021/10/19 05:36:50;;;;;;;41.10;33.80;;;;;;;8.14;76.47;101291.02;117191;1189;22827;-79
2021/10/19 05:39:20;;;;;;;43.50;36.30;;;;;;;8.18;76.52;101285.94;117142;1189;22413;-80
2021/10/19 05:41:52;;;;;;;42.20;37.30;;;;;;;8.23;76.63;101284.55;116545;1184;22322;-80
2021/10/19 05:44:28;;;;;;;46.60;35.40;;;;;;;8.30;76.58;101279.98;116764;1192;21908;-80
2021/10/19 05:47:00;;;;;;;41.40;34.20;;;;;;;8.39;76.66;101281.18;116661;1195;21923;-80
2021/10/19 05:49:35;;;;;;;39.60;33.10;;;;;;;8.47;76.53;101283.65;116415;1193;21880;-80
2021/10/19 05:52:07;;;;;;;37.40;30.30;;;;;;;8.48;76.07;101286.39;116465;1197;22339;-80
2021/10/19 05:54:40;;;;;;;33.80;29.70;;;;;;;8.46;75.96;101286.48;116595;1197;21901;-78
2021/10/19 05:57:36;;;;;;;32.30;26.40;;;;;;;8.44;75.67;101282.70;116458;1197;21913;-80
2021/10/19 06:00:35;;;;;;;37.10;28.50;;;;;;;8.38;75.62;101275.79;116445;1193;21884;-80
2021/10/19 06:03:39;;;;;;;33.90;27.50;;;;;;;8.34;75.75;101268.90;116954;1194;21926;-80
2021/10/19 06:06:56;;;;;;;34.30;27.50;;;;;;;8.34;75.83;101268.38;116949;1191;21914;-79
2021/10/19 06:09:39;;;;;;;32.70;28.80;;;;;;;8.43;76.22;101270.78;116765;1193;21996;-80
2021/10/19 06:12:24;;;;;;;33.00;29.40;;;;;;;8.51;76.07;101273.30;116540;1197;21921;-80
2021/10/19 06:15:15;;;;;;;35.30;29.80;;;;;;;8.57;75.86;101271.55;116358;1198;22153;-80
2021/10/19 06:17:53;;;;;;;35.60;30.30;;;;;;;8.61;75.75;101265.65;116286;1197;21930;-79
2021/10/19 06:20:46;;;;;;;36.10;31.30;;;;;;;8.66;75.88;101259.02;116359;1197;22649;-80
2021/10/19 06:23:29;;;;;;;38.50;31.90;;;;;;;8.74;75.74;101263.61;116429;1197;21904;-80
2021/10/19 06:29:04;;;;;;;37.80;32.30;;;;;;;8.88;75.38;101268.71;116629;1194;23590;-80
2021/10/19 06:31:34;;;;;;;34.90;31.10;;;;;;;8.92;75.28;101273.45;116895;1191;22675;-80
2021/10/19 06:34:09;;;;;;;37.30;30.90;;;;;;;9.00;75.26;101279.07;117102;1189;21893;-80
2021/10/19 06:36:39;;;;;;;47.00;35.30;;;;;;;9.06;75.11;101284.10;117173;1188;22614;-80
2021/10/19 06:39:09;;;;;;;40.80;36.50;;;;;;;9.14;75.02;101291.17;117168;1189;21889;-80
2021/10/19 06:41:46;;;;;;;39.70;34.00;;;;;;;9.25;74.95;101291.80;117169;1187;21908;-81
2021/10/19 06:44:16;;;;;;;39.80;35.40;;;;;;;9.33;74.64;101289.16;117137;1189;22894;-81
2021/10/19 06:47:09;;;;;;;40.20;35.70;;;;;;;9.45;74.72;101291.58;117321;1189;22290;-81
2021/10/19 06:49:39;;;;;;;48.70;36.10;;;;;;;9.53;74.29;101288.10;117110;1189;22601;-79
2021/10/19 06:52:09;;;;;;;40.00;35.60;;;;;;;9.55;73.48;101281.67;117301;1189;22351;-80
2021/10/19 06:54:40;;;;;;;39.40;35.40;;;;;;;9.52;73.09;101277.93;117322;1188;21915;-80
2021/10/19 06:57:11;;;;;;;38.10;33.00;;;;;;;9.55;73.03;101278.34;117141;1189;23437;-80
2021/10/19 06:59:44;;;;;;;44.70;39.50;;;;;;;9.54;72.84;101273.88;117195;1187;24128;-78
2021/10/19 07:02:17;;;;;;;40.20;35.80;;;;;;;9.55;72.85;101274.36;117164;1189;21905;-77
2021/10/19 07:04:48;;;;;;;37.30;33.40;;;;;;;9.58;73.05;101274.45;117107;1189;24223;-78
2021/10/19 07:07:17;;;;;;;38.00;34.00;;;;;;;9.62;72.84;101280.07;117091;1189;21915;-78
2021/10/19 07:09:46;;;;;;;39.20;33.90;;;;;;;9.68;72.85;101283.04;117124;1188;23501;-77
2021/10/19 07:12:15;;;;;;;36.30;32.40;;;;;;;9.70;72.57;101283.02;117130;1189;22316;-78
2021/10/19 07:14:44;;;;;;;38.60;34.40;;;;;;;9.72;72.53;101288.48;117072;1189;21898;-78
2021/10/19 07:17:15;;;;;;;39.30;35.10;;;;;;;9.76;72.73;101288.73;117031;1186;21915;-78
2021/10/19 07:19:46;;;;;;;38.10;33.90;;;;;;;9.82;72.64;101286.67;117084;1184;23606;-78
2021/10/19 07:22:17;;;;;;;37.30;33.30;;;;;;;9.85;72.40;101284.39;116965;1188;22924;-78
2021/10/19 07:24:46;;;;;;;38.40;34.30;;;;;;;9.90;72.37;101278.52;116830;1192;21895;-76
2021/10/19 07:27:15;;;;;;;42.40;34.40;;;;;;;10.00;72.47;101280.62;116763;1191;23546;-78
2021/10/19 07:29:45;;;;;;;39.90;35.60;;;;;;;10.08;72.36;101281.59;116746;1192;23469;-77
2021/10/19 07:32:14;;;;;;;39.70;34.20;;;;;;;10.15;72.20;101285.19;116845;1191;21943;-78
2021/10/19 07:34:44;;;;;;;38.10;33.60;;;;;;;10.23;72.10;101287.96;116553;1182;21904;-77
2021/10/19 07:37:16;;;;;;;39.80;34.10;;;;;;;10.35;72.23;101289.38;116525;1193;21967;-78
2021/10/19 07:39:46;;;;;;;39.60;35.30;;;;;;;10.48;72.15;101290.44;116282;1196;21919;-77
2021/10/19 07:42:18;;;;;;;37.10;31.10;;;;;;;10.61;71.96;101286.02;116329;1195;21913;-78
2021/10/19 07:44:47;;;;;;;35.20;30.50;;;;;;;10.75;71.71;101283.48;116436;1193;22875;-78
2021/10/19 07:47:16;;;;;;;33.40;29.80;;;;;;;10.89;71.38;101279.48;116561;1193;21986;-78
2021/10/19 07:49:49;;;;;;;30.90;27.80;;;;;;;11.01;70.94;101280.41;116445;1195;21921;-78
2021/10/19 07:52:26;;;;;;;32.40;27.80;;;;;;;11.12;70.54;101273.09;116805;1192;23007;-78
2021/10/19 07:54:59;;;;;;;30.10;26.90;;;;;;;11.23;70.37;101273.00;116666;1192;23013;-77
2021/10/19 07:57:28;;;;;;;29.60;26.20;;;;;;;11.35;69.82;101267.99;116360;1192;23635;-77
2021/10/19 07:59:57;;;;;;;28.20;25.00;;;;;;;11.44;69.42;101266.58;116536;1192;21915;-77
2021/10/19 08:02:27;;;;;;;28.50;25.30;;;;;;;11.54;69.09;101264.14;116608;1192;23098;-78
2021/10/19 08:04:56;;;;;;;25.60;22.10;;;;;;;11.67;69.06;101260.09;116773;1192;21895;-78
2021/10/19 08:07:25;;;;;;;25.70;22.60;;;;;;;11.81;68.63;101254.44;116571;1192;21903;-78
2021/10/19 08:09:54;;;;;;;25.20;21.80;;;;;;;11.89;68.00;101252.18;116848;1189;21890;-78
2021/10/19 08:12:24;;;;;;;25.20;22.50;;;;;;;11.97;67.35;101247.21;116598;1189;23753;-78
2021/10/19 08:15:00;;;;;;;25.60;21.20;;;;;;;12.07;67.48;101243.34;117058;1187;22538;-77
2021/10/19 08:17:33;;;;;;;25.30;21.30;;;;;;;12.22;67.22;101242.32;116899;1189;22850;-77
2021/10/19 08:20:04;;;;;;;29.40;22.90;;;;;;;12.34;66.70;101237.45;116994;1189;21905;-77
2021/10/19 08:22:34;;;;;;;25.80;21.10;;;;;;;12.48;66.63;101233.14;117056;1186;22004;-77
2021/10/19 08:25:07;;;;;;;31.70;23.80;;;;;;;12.61;65.99;101233.01;117019;1189;22927;-77
2021/10/19 08:27:43;;;;;;;30.40;23.60;;;;;;;12.71;65.38;101234.97;117042;1189;23444;-76
2021/10/19 08:30:17;;;;;;;28.30;22.90;;;;;;;12.79;65.10;101229.77;117037;1186;23486;-78
2021/10/19 08:32:50;;;;;;;25.80;20.50;;;;;;;12.88;64.72;101229.69;116773;1192;22920;-76
2021/10/19 08:35:24;;;;;;;23.80;20.40;;;;;;;12.94;64.36;101230.06;116579;1193;22676;-76
2021/10/19 08:37:54;;;;;;;23.30;19.60;;;;;;;13.02;64.15;101235.10;116563;1193;22648;-77
2021/10/19 08:40:27;;;;;;;22.30;19.90;;;;;;;13.11;64.00;101239.33;116563;1195;22935;-76
2021/10/19 08:42:57;;;;;;;19.50;16.50;;;;;;;13.19;63.88;101229.43;116538;1194;21911;-77
2021/10/19 08:45:29;;;;;;;19.30;16.50;;;;;;;13.24;63.32;101227.47;116513;1193;21891;-76
2021/10/19 08:48:00;;;;;;;19.50;17.60;;;;;;;13.28;63.18;101227.95;116549;1194;23535;-77
2021/10/19 08:50:30;;;;;;;19.70;15.50;;;;;;;13.37;63.21;101230.70;116598;1192;21898;-76
2021/10/19 08:52:59;;;;;;;16.50;14.50;;;;;;;13.42;62.55;101227.52;116790;1189;21927;-76
2021/10/19 08:55:29;;;;;;;20.80;16.40;;;;;;;13.46;62.31;101223.02;116933;1189;23430;-77
2021/10/19 08:58:13;;;;;;;18.50;16.50;;;;;;;13.50;61.99;101221.48;116730;1189;23572;-78
2021/10/19 09:00:45;;;;;;;18.90;15.60;;;;;;;13.50;61.61;101221.13;117034;1189;21899;-77
2021/10/19 09:03:22;;;;;;;17.10;15.30;;;;;;;13.49;61.44;101218.44;117073;1181;21888;-78
2021/10/19 09:05:52;;;;;;;18.90;16.90;;;;;;;13.54;61.83;101218.80;117105;1185;22924;-77
2021/10/19 09:08:24;;;;;;;19.50;16.90;;;;;;;13.63;61.73;101222.75;117021;1189;21877;-77
2021/10/19 09:10:56;;;;;;;18.50;16.10;;;;;;;13.72;61.71;101223.05;117138;1186;21912;-77
2021/10/19 09:13:26;;;;;;;19.20;17.00;;;;;;;13.77;61.13;101218.73;116819;1192;22111;-78
2021/10/19 09:15:56;;;;;;;19.60;16.80;;;;;;;13.84;61.12;101216.56;116851;1191;23515;-79
2021/10/19 09:18:28;;;;;;;17.90;15.70;;;;;;;13.90;60.76;101219.08;116375;1195;21933;-78
2021/10/19 09:20:57;;;;;;;19.80;15.50;;;;;;;13.93;60.59;101221.43;116467;1187;23494;-78
2021/10/19 09:23:28;;;;;;;19.50;17.50;;;;;;;13.99;60.63;101220.09;116493;1195;22520;-78
2021/10/19 09:26:03;;;;;;;20.40;18.00;;;;;;;14.04;60.32;101218.25;116459;1195;23706;-78
2021/10/19 09:28:39;;;;;;;19.80;16.70;;;;;;;14.09;60.17;101216.80;116499;1192;21890;-79
2021/10/19 09:31:09;;;;;;;22.10;19.60;;;;;;;14.07;59.86;101218.69;116446;1193;23569;-77
2021/10/19 09:33:42;;;;;;;24.60;19.80;;;;;;;14.09;59.84;101218.45;116492;1195;23038;-77
2021/10/19 09:36:11;;;;;;;23.00;17.00;;;;;;;14.13;59.98;101211.36;116546;1192;21921;-77
2021/10/19 09:38:49;;;;;;;21.50;17.70;;;;;;;14.18;59.87;101210.92;116238;1196;21895;-78
2021/10/19 09:41:21;;;;;;;22.00;18.70;;;;;;;14.29;60.19;101209.36;116326;1196;21956;-78
2021/10/19 09:43:56;;;;;;;18.90;13.60;;;;;;;14.42;60.01;101206.09;116015;1200;23548;-78
2021/10/19 09:46:28;;;;;;;17.40;14.70;;;;;;;14.54;59.58;101206.54;116103;1200;24158;-78
2021/10/19 09:49:01;;;;;;;13.40;11.10;;;;;;;14.60;58.78;101203.52;115697;1200;21938;-78
2021/10/19 09:51:39;;;;;;;13.80;11.20;;;;;;;14.64;58.31;101198.88;115689;1200;21997;-78
2021/10/19 09:54:12;;;;;;;11.10;9.30;;;;;;;14.72;57.86;101198.77;115969;1200;23579;-78
2021/10/19 09:56:42;;;;;;;;;;;;;;;14.82;57.41;101188.78;116140;1198;21941;-78
2021/10/19 09:59:17;;;;;;;12.90;9.40;;;;;;;14.87;57.11;101189.55;115901;1201;22920;-77
2021/10/19 10:01:47;;;;;;;14.30;10.30;;;;;;;14.95;56.79;101188.91;115849;1198;21949;-77
2021/10/19 10:04:22;;;;;;;13.20;11.30;;;;;;;15.13;56.81;101184.15;116275;1196;21955;-77
2021/10/19 10:06:57;;;;;;;13.10;11.50;;;;;;;15.36;56.59;101178.66;116167;1193;22815;-78
2021/10/19 10:09:28;;;;;;;12.20;8.80;;;;;;;15.60;56.20;101170.15;116491;1181;21890;-77
2021/10/19 10:11:57;;;;;;;9.90;8.80;;;;;;;15.75;55.06;101166.69;116482;1195;21904;-78
2021/10/19 10:14:48;;;;;;;10.50;9.20;;;;;;;15.88;54.38;101168.56;116362;1195;23464;-77
2021/10/19 10:17:19;;;;;;;9.30;8.00;;;;;;;16.06;54.17;101166.36;116625;1192;22079;-78
2021/10/19 10:20:08;;;;;;;11.40;9.20;;;;;;;16.33;53.79;101162.38;116582;1192;21889;-78
2021/10/19 10:22:55;;;;;;;15.90;13.30;;;;;;;16.57;52.56;101162.84;116609;1191;22116;-79
2021/10/19 10:25:38;;;;;;;20.30;13.50;;;;;;;16.77;51.86;101167.19;116847;1191;21935;-78
2021/10/19 10:28:35;;;;;;;11.60;10.40;;;;;;;17.12;52.48;101165.77;116513;1193;21871;-78
2021/10/19 10:31:22;;;;;;;11.00;8.10;;;;;;;17.65;51.13;101164.77;116586;1193;21875;-79
2021/10/19 10:34:08;;;;;;;10.30;8.60;;;;;;;18.05;49.98;101160.98;116520;1182;21898;-78
2021/10/19 10:36:52;;;;;;;11.60;8.70;;;;;;;18.55;49.75;101151.91;116326;1195;22337;-77
2021/10/19 10:39:33;;;;;;;7.60;6.60;;;;;;;19.12;48.63;101145.89;116394;1192;23563;-78
2021/10/19 10:42:43;;;;;;;10.40;7.80;;;;;;;19.40;46.64;101148.41;116326;1192;21901;-78
2021/10/19 10:45:31;;;;;;;13.20;6.90;;;;;;;19.75;46.00;101151.98;116301;1193;22396;-78
2021/10/19 10:48:08;;;;;;;10.30;6.70;;;;;;;20.19;45.77;101151.92;116568;1190;21906;-78
2021/10/19 10:50:38;;;;;;;10.80;8.10;;;;;;;20.46;43.61;101145.87;116535;1193;23660;-78
2021/10/19 10:53:11;;;;;;;12.90;8.70;;;;;;;20.51;42.68;101140.99;116712;1191;23477;-79
2021/10/19 10:55:52;;;;;;;10.90;8.10;;;;;;;20.43;41.57;101136.02;116655;1190;23457;-77
2021/10/19 10:58:27;;;;;;;9.60;7.00;;;;;;;20.23;41.80;101133.51;116817;1187;24260;-80
2021/10/19 11:01:11;;;;;;;9.40;8.30;;;;;;;20.02;42.14;101128.45;116821;1187;23576;-79
2021/10/19 11:03:53;;;;;;;10.40;7.60;;;;;;;19.87;42.48;101125.16;116788;1188;23435;-78
2021/10/19 11:06:25;;;;;;;9.20;6.90;;;;;;;19.67;42.40;101120.41;116775;1190;22943;-78
2021/10/19 11:09:05;;;;;;;10.20;6.90;;;;;;;19.41;42.41;101119.31;116787;1191;23566;-77
2021/10/19 11:11:41;;;;;;;7.50;5.80;;;;;;;19.21;43.10;101117.91;116821;1190;21933;-78
2021/10/19 11:14:17;;;;;;;9.90;6.50;;;;;;;18.91;42.89;101114.59;116821;1189;22909;-78
2021/10/19 11:16:50;;;;;;;8.60;5.80;;;;;;;18.66;43.29;101114.16;116586;1190;24201;-78
2021/10/19 11:19:33;;;;;;;6.80;5.70;;;;;;;18.48;43.55;101117.52;116362;1194;21904;-78
2021/10/19 11:22:09;;;;;;;10.50;5.90;;;;;;;18.29;43.66;101117.13;116285;1195;23047;-78
2021/10/19 11:24:47;;;;;;;13.50;8.30;;;;;;;18.13;44.29;101115.45;116259;1195;23477;-79
2021/10/19 11:27:22;;;;;;;12.40;7.90;;;;;;;18.02;44.40;101103.71;116244;1193;22169;-77
2021/10/19 11:29:55;;;;;;;10.30;7.00;;;;;;;17.89;44.52;101088.80;116342;1195;23593;-77
2021/10/19 11:32:24;;;;;;;10.10;6.40;;;;;;;17.81;44.82;101086.98;116379;1193;22205;-77
2021/10/19 11:35:00;;;;;;;7.10;6.40;;;;;;;17.82;45.20;101086.72;116380;1192;21909;-78
2021/10/19 11:37:35;;;;;;;11.20;7.20;;;;;;;17.85;45.19;101076.81;116870;1189;23564;-78
2021/10/19 11:40:13;;;;;;;8.40;7.50;;;;;;;17.81;44.81;101069.60;116840;1189;21929;-77
2021/10/19 11:42:54;;;;;;;13.10;8.30;;;;;;;17.84;45.30;101067.36;116851;1187;23627;-78
2021/10/19 11:45:27;;;;;;;9.00;7.50;;;;;;;17.87;45.04;101059.19;116840;1189;23651;-78
2021/10/19 11:48:07;;;;;;;12.10;9.10;;;;;;;17.84;45.09;101049.72;116880;1189;22927;-78
2021/10/19 11:50:40;;;;;;;10.80;9.70;;;;;;;17.86;45.19;101044.09;116864;1189;22858;-77